Time;durP1;ratioP1;P1;durP2;ratioP2;P2;SDS_P1;SDS_P2;PMS_P1;PMS_P2;Temp;Humidity;BMP_temperature;BMP_pressure;BME280_temperature;BME280_humidity;BME280_pressure;Samples;Min_cycle;Max_cycle;Signal;HPM_P1;HPM_P2
2021/06/28 00:01:15;;;;;;;;;;;;;;;15.47;67.73;98741.70;513219;1089;104207;-43
2021/06/28 00:11:23;;;;;;;15.17;11.67;;;;;;;15.51;67.67;98741.98;512995;1089;103107;-42
2021/06/28 00:21:31;;;;;;;17.93;11.77;;;;;;;15.30;67.84;98743.73;513033;1089;104334;-42
2021/06/28 00:41:46;;;;;;;16.90;14.57;;;;;;;14.74;68.30;98749.46;512894;1088;103400;-42
2021/06/28 00:51:59;;;;;;;19.80;13.95;;;;;;;14.36;68.35;98741.62;512890;1088;103473;-43
2021/06/28 01:02:06;;;;;;;19.13;13.43;;;;;;;14.23;69.12;98752.67;512898;1089;103061;-42
2021/06/28 01:12:14;;;;;;;21.47;14.80;;;;;;;14.23;69.32;98739.38;512739;1089;103399;-42
2021/06/28 01:22:25;;;;;;;24.50;16.53;;;;;;;14.25;70.00;98731.95;512902;1089;103159;-42
2021/06/28 01:32:32;;;;;;;23.33;16.40;;;;;;;14.35;70.30;98732.03;513713;1088;103364;-42
2021/06/28 01:42:40;;;;;;;24.90;16.40;;;;;;;14.46;70.25;98731.13;512886;1089;103096;-43
2021/06/28 01:52:48;;;;;;;23.23;17.35;;;;;;;14.41;70.12;98739.00;513601;1090;103496;-43
2021/06/28 02:03:04;;;;;;;26.57;17.93;;;;;;;14.33;70.49;98736.80;513121;1090;103099;-42
2021/06/28 02:13:12;;;;;;;43.97;23.07;;;;;;;14.33;70.91;98737.61;512805;1088;103121;-41
2021/06/28 02:23:38;;;;;;;35.20;22.27;;;;;;;14.42;71.11;98729.96;512786;1088;103129;-44
2021/06/28 02:33:45;;;;;;;34.80;22.13;;;;;;;14.48;71.52;98731.67;512898;1089;103446;-42
2021/06/28 02:43:54;;;;;;;28.00;21.00;;;;;;;14.61;71.76;98733.90;512877;1088;103454;-42
2021/06/28 02:54:02;;;;;;;30.93;23.80;;;;;;;14.80;71.67;98738.85;512831;1089;103470;-43
2021/06/28 03:04:10;;;;;;;38.07;22.60;;;;;;;15.09;71.88;98728.67;512854;1088;103263;-43
2021/06/28 03:14:17;;;;;;;31.00;22.83;;;;;;;16.63;71.47;98713.80;512889;1088;103071;-43
2021/06/28 03:24:26;;;;;;;25.93;22.28;;;;;;;19.40;69.71;98707.58;513092;1089;103038;-42
2021/06/28 03:34:33;;;;;;;23.90;20.88;;;;;;;21.46;67.00;98714.77;512894;1089;103507;-44
2021/06/28 03:44:42;;;;;;;25.27;19.40;;;;;;;21.78;66.10;98711.19;513020;1088;103125;-43
2021/06/28 03:54:49;;;;;;;21.37;19.13;;;;;;;22.05;65.35;98705.78;513088;1088;103160;-42
2021/06/28 04:04:57;;;;;;;23.80;21.23;;;;;;;20.43;64.31;98720.27;512819;1088;103463;-41
2021/06/28 04:15:04;;;;;;;32.10;21.28;;;;;;;19.23;65.13;98713.41;513064;1088;103082;-42
2021/06/28 04:25:16;;;;;;;24.98;21.70;;;;;;;18.54;65.95;98722.55;512958;1088;103508;-42
2021/06/28 04:35:26;;;;;;;36.03;25.00;;;;;;;18.28;66.01;98732.63;513258;1089;103489;-43
2021/06/28 04:45:34;;;;;;;48.90;36.60;;;;;;;18.16;67.20;98726.80;512862;1090;103121;-43
2021/06/28 04:55:42;;;;;;;53.50;37.83;;;;;;;18.37;67.26;98741.67;513060;1088;103067;-41
2021/06/28 05:05:49;;;;;;;29.80;24.33;;;;;;;19.25;67.27;98733.48;512938;1088;103122;-42
2021/06/28 05:15:57;;;;;;;22.75;18.40;;;;;;;19.63;67.05;98742.48;513005;1088;103550;-42
2021/06/28 05:26:05;;;;;;;20.63;16.70;;;;;;;20.84;66.83;98739.24;513228;1089;103112;-43
2021/06/28 05:36:13;;;;;;;19.53;14.10;;;;;;;21.60;65.95;98745.17;512861;1089;103106;-41
2021/06/28 05:56:28;;;;;;;24.83;14.37;;;;;;;22.04;63.54;98749.17;512902;1089;103121;-42
2021/06/28 06:06:35;;;;;;;28.50;13.00;;;;;;;21.98;62.46;98758.40;512901;1088;103434;-42
2021/06/28 06:16:43;;;;;;;18.53;13.60;;;;;;;21.74;61.96;98764.00;513811;1087;103529;-41
2021/06/28 06:26:50;;;;;;;22.10;13.63;;;;;;;22.19;62.10;98785.73;513366;1089;103533;-42
2021/06/28 06:36:56;;;;;;;;;;;;;;;23.41;60.42;98770.17;513763;1088;103126;-41
2021/06/28 06:47:05;;;;;;;12.20;9.10;;;;;;;24.91;58.58;98780.70;513451;1088;103524;-43
2021/06/28 06:57:13;;;;;;;15.85;7.43;;;;;;;25.98;55.55;98788.67;513148;1089;103454;-43
2021/06/28 07:07:21;;;;;;;10.67;5.30;;;;;;;26.07;54.35;98793.28;513146;1088;103450;-42
2021/06/28 07:17:28;;;;;;;8.67;5.10;;;;;;;27.29;54.09;98793.93;513321;1089;103678;-42
2021/06/28 07:27:35;;;;;;;6.15;4.55;;;;;;;27.45;50.22;98792.16;513383;1089;103591;-42
2021/06/28 07:37:43;;;;;;;6.50;4.93;;;;;;;27.48;50.14;98799.64;513085;1088;103118;-43
2021/06/28 07:47:49;;;;;;;5.00;4.60;;;;;;;28.07;49.20;98802.73;512851;1089;103445;-43
2021/06/28 07:57:56;;;;;;;5.20;4.43;;;;;;;28.37;47.30;98797.06;513001;1088;104174;-44
2021/06/28 08:08:04;;;;;;;8.45;5.15;;;;;;;28.77;47.36;98799.00;512951;1089;103492;-44
2021/06/28 08:18:12;;;;;;;5.27;4.87;;;;;;;29.35;45.14;98805.69;512993;1089;103482;-44
2021/06/28 08:28:20;;;;;;;5.73;4.43;;;;;;;28.14;43.69;98802.95;512841;1088;103038;-44
2021/06/28 08:38:28;;;;;;;8.20;5.60;;;;;;;28.20;45.18;98810.90;513182;1089;103124;-43
2021/06/28 08:48:36;;;;;;;4.60;4.20;;;;;;;28.18;42.54;98815.89;512891;1088;103116;-44
2021/06/28 08:58:44;;;;;;;4.83;4.43;;;;;;;28.36;42.98;98803.63;513251;1089;103373;-43
2021/06/28 09:08:54;;;;;;;6.63;5.20;;;;;;;28.20;42.00;98816.34;512918;1089;103114;-43
2021/06/28 09:19:05;;;;;;;4.23;3.93;;;;;;;29.21;41.81;98810.75;513084;1088;103119;-45
2021/06/28 09:29:12;;;;;;;6.57;5.07;;;;;;;28.66;40.98;98806.88;513022;1090;103099;-43
2021/06/28 09:39:25;;;;;;;4.30;3.83;;;;;;;28.82;40.90;98801.47;513221;1089;103711;-44
2021/06/28 09:49:34;;;;;;;4.17;3.80;;;;;;;29.41;40.25;98806.22;513269;1088;103055;-45
2021/06/28 09:59:40;;;;;;;7.13;3.90;;;;;;;28.99;40.07;98799.28;513203;1088;103116;-43
2021/06/28 10:09:47;;;;;;;9.15;4.10;;;;;;;28.85;40.91;98787.16;513037;1090;103131;-43
2021/06/28 10:19:55;;;;;;;7.00;4.20;;;;;;;28.59;40.24;98785.67;512863;1089;103236;-43
2021/06/28 10:30:06;;;;;;;5.00;4.60;;;;;;;28.58;40.79;98786.80;513140;1089;103396;-44
2021/06/28 10:40:17;;;;;;;4.00;3.70;;;;;;;28.70;41.23;98775.90;513201;1089;103543;-42
2021/06/28 10:50:45;;;;;;;5.83;4.10;;;;;;;29.26;40.50;98783.25;513217;1089;103043;-44
2021/06/28 11:00:54;;;;;;;7.17;4.40;;;;;;;29.49;38.88;98775.31;513241;1089;103122;-42
2021/06/28 11:11:03;;;;;;;5.40;4.40;;;;;;;28.45;38.84;98773.60;512997;1088;103176;-43
2021/06/28 11:21:11;;;;;;;5.80;4.73;;;;;;;28.18;39.25;98754.14;512948;1089;103502;-42
2021/06/28 11:31:30;;;;;;;5.00;3.60;;;;;;;28.48;39.04;98751.94;514087;1088;103124;-42
2021/06/28 11:41:38;;;;;;;4.00;3.60;;;;;;;28.14;38.58;98747.79;513137;1088;103143;-43
2021/06/28 11:51:48;;;;;;;3.73;3.33;;;;;;;28.21;38.22;98749.95;513299;1089;103153;-43
2021/06/28 12:01:56;;;;;;;3.87;3.57;;;;;;;28.59;38.35;98733.98;513080;1089;103113;-43
2021/06/28 12:12:09;;;;;;;3.70;3.40;;;;;;;28.62;37.22;98730.56;512955;1088;103235;-45
2021/06/28 12:22:20;;;;;;;3.60;3.35;;;;;;;28.18;37.83;98718.80;513066;1089;103119;-43
2021/06/28 12:32:29;;;;;;;5.20;4.10;;;;;;;27.83;38.25;98722.02;513273;1089;103138;-43
2021/06/28 12:42:39;;;;;;;24.37;6.03;;;;;;;27.17;38.99;98713.25;513307;1088;103124;-43
2021/06/28 12:52:47;;;;;;;10.23;4.63;;;;;;;26.74;39.93;98709.06;513063;1089;103191;-43
2021/06/28 13:03:05;;;;;;;5.70;3.50;;;;;;;27.11;39.70;98712.67;512879;1089;103146;-42
2021/06/28 13:13:21;;;;;;;4.50;4.10;;;;;;;27.13;39.72;98704.98;513033;1089;103485;-41
2021/06/28 13:23:29;;;;;;;4.87;4.37;;;;;;;27.50;39.41;98718.61;513192;1088;103114;-43
2021/06/28 13:33:36;;;;;;;3.80;3.50;;;;;;;27.69;39.66;98715.37;513190;1088;103111;-45
2021/06/28 13:43:44;;;;;;;4.23;3.77;;;;;;;27.47;38.66;98701.08;513145;1089;103198;-42
2021/06/28 13:53:52;;;;;;;4.63;3.87;;;;;;;27.48;38.77;98691.80;513133;1089;103112;-42
2021/06/28 14:03:59;;;;;;;3.67;3.37;;;;;;;27.55;38.51;98685.79;513013;1088;103162;-42
2021/06/28 14:14:08;;;;;;;5.13;3.33;;;;;;;27.32;37.99;98674.59;513373;1088;103097;-42
2021/06/28 14:34:22;;;;;;;3.40;3.10;;;;;;;27.53;36.00;98667.13;513025;1088;103097;-42
2021/06/28 14:44:29;;;;;;;5.07;3.33;;;;;;;27.78;37.19;98683.42;513037;1088;103121;-43
2021/06/28 14:54:38;;;;;;;3.50;3.20;;;;;;;27.63;36.62;98676.75;513039;1088;103130;-43
2021/06/28 15:04:45;;;;;;;3.17;2.37;;;;;;;27.58;35.69;98670.73;512981;1090;103592;-40
2021/06/28 15:14:52;;;;;;;3.20;2.87;;;;;;;27.48;35.04;98653.78;513395;1089;103112;-43
2021/06/28 15:25:00;;;;;;;3.00;2.30;;;;;;;27.32;34.71;98650.16;513020;1089;103137;-44
2021/06/28 15:35:21;;;;;;;6.87;2.97;;;;;;;27.43;34.59;98648.55;513125;1089;103141;-43
2021/06/28 15:45:29;;;;;;;2.80;2.60;;;;;;;27.32;34.70;98636.58;513267;1089;103495;-43
2021/06/28 15:55:36;;;;;;;2.30;2.20;;;;;;;27.25;35.29;98636.36;513218;1089;103128;-43
2021/06/28 16:05:44;;;;;;;3.80;2.57;;;;;;;27.08;34.34;98621.08;513299;1088;103448;-42
2021/06/28 16:15:52;;;;;;;3.30;2.57;;;;;;;26.95;34.48;98615.94;513082;1088;103153;-42
2021/06/28 16:26:00;;;;;;;2.30;2.10;;;;;;;26.74;34.08;98618.76;513107;1090;103095;-42
2021/06/28 16:36:11;;;;;;;3.83;2.57;;;;;;;26.60;34.43;98608.20;512866;1089;103476;-42
2021/06/28 16:46:18;;;;;;;4.13;3.43;;;;;;;26.40;34.88;98606.34;513002;1088;103304;-41
2021/06/28 16:56:26;;;;;;;13.57;5.40;;;;;;;26.33;35.65;98595.23;512744;1088;103146;-43
2021/06/28 17:06:32;;;;;;;3.30;3.10;;;;;;;26.20;35.47;98586.25;512779;1089;103496;-41
2021/06/28 17:26:44;;;;;;;;;;;;;;;25.94;36.65;98586.48;512999;1088;103145;-44
2021/06/28 17:46:58;;;;;;;6.45;3.50;;;;;;;25.44;38.20;98578.38;514405;1090;103103;-44
2021/06/28 17:57:07;;;;;;;4.50;4.10;;;;;;;25.20;38.94;98581.71;513110;1089;103201;-42
2021/06/28 18:07:29;;;;;;;5.23;3.13;;;;;;;24.85;39.63;98573.74;512962;1089;103132;-43
2021/06/28 18:17:37;;;;;;;9.00;3.65;;;;;;;24.48;40.71;98580.69;512857;1089;103423;-43
2021/06/28 18:27:44;;;;;;;6.10;3.90;;;;;;;23.94;41.50;98572.17;513243;1088;103485;-43
2021/06/28 18:37:53;;;;;;;8.67;4.77;;;;;;;23.40;42.41;98565.41;512978;1088;103044;-42
2021/06/28 18:48:01;;;;;;;8.50;4.67;;;;;;;22.92;43.83;98569.73;512839;1089;103138;-42
2021/06/28 18:58:07;;;;;;;10.83;4.67;;;;;;;22.48;45.55;98576.02;513189;1089;103153;-43
2021/06/28 19:28:29;;;;;;;12.70;7.05;;;;;;;21.19;48.34;98591.82;512899;1088;103474;-42
2021/06/28 19:38:37;;;;;;;10.45;7.45;;;;;;;20.91;49.46;98592.92;513119;1088;103451;-42
2021/06/28 19:48:43;;;;;;;18.73;7.63;;;;;;;20.54;50.10;98592.76;512952;1088;103159;-42
2021/06/28 19:58:50;;;;;;;14.43;8.07;;;;;;;20.12;50.67;98600.97;513048;1090;103137;-45
2021/06/28 20:08:58;;;;;;;13.00;7.77;;;;;;;19.97;51.66;98606.56;513237;1090;103546;-42
2021/06/28 20:19:03;;;;;;;11.67;6.87;;;;;;;19.89;51.80;98608.03;513252;1089;103119;-44
2021/06/28 20:29:10;;;;;;;15.80;8.47;;;;;;;19.75;52.26;98607.14;512899;1089;103143;-42
2021/06/28 20:39:17;;;;;;;15.77;9.33;;;;;;;19.57;52.97;98609.52;513277;1088;103143;-42
2021/06/28 20:49:24;;;;;;;13.15;9.75;;;;;;;19.27;53.68;98616.05;513180;1088;103403;-41
2021/06/28 21:09:37;;;;;;;16.53;9.50;;;;;;;18.85;54.75;98611.41;513977;1089;103143;-43
2021/06/28 21:40:02;;;;;;;19.73;12.00;;;;;;;18.61;56.46;98624.73;513225;1088;103649;-44
2021/06/28 21:50:11;;;;;;;20.93;12.70;;;;;;;18.47;57.39;98631.84;513089;1089;103452;-42
2021/06/28 22:00:16;;;;;;;18.90;11.90;;;;;;;18.49;57.62;98626.20;512962;1088;103102;-42
2021/06/28 22:10:24;;;;;;;25.53;14.60;;;;;;;18.32;57.90;98621.25;512842;1089;103125;-43
2021/06/28 22:20:34;;;;;;;18.90;15.07;;;;;;;18.11;58.63;98620.60;512862;1088;103499;-44
2021/06/28 22:30:42;;;;;;;25.43;16.57;;;;;;;17.95;59.11;98613.75;512972;1089;103105;-43
2021/06/28 22:40:50;;;;;;;29.55;16.85;;;;;;;17.86;59.57;98616.22;512907;1089;103157;-42
2021/06/28 22:50:56;;;;;;;27.00;18.80;;;;;;;17.82;60.09;98611.71;513019;1088;103120;-42
2021/06/28 23:01:04;;;;;;;22.17;17.87;;;;;;;17.76;60.81;98611.75;512770;1089;103509;-42
2021/06/28 23:11:12;;;;;;;24.00;15.10;;;;;;;17.86;60.94;98594.02;513151;1088;103214;-42
2021/06/28 23:21:18;;;;;;;26.20;20.63;;;;;;;17.81;61.37;98591.39;512865;1089;103176;-42
2021/06/28 23:31:26;;;;;;;26.73;20.53;;;;;;;17.63;61.98;98585.58;513076;1089;103100;-43
2021/06/28 23:51:41;;;;;;;27.43;18.90;;;;;;;17.57;63.04;98575.98;512888;1089;103562;-41
